Time;durP1;ratioP1;P1;durP2;ratioP2;P2;SDS_P1;SDS_P2;PMS_P1;PMS_P2;Temp;Humidity;BMP_temperature;BMP_pressure;BME280_temperature;BME280_humidity;BME280_pressure;Samples;Min_cycle;Max_cycle;Signal;HPM_P1;HPM_P2
2022/06/19 00:00:05;;;;;;;7.57;1.98;;;;;;;;;;5073356;28;20229;-15
2022/06/19 00:02:33;;;;;;;7.38;1.52;;;;;;;;;;5070887;28;20233;-15
2022/06/19 00:05:01;;;;;;;5.30;1.60;;;;;;;;;;5072791;28;20241;-15
2022/06/19 00:07:29;;;;;;;7.43;1.75;;;;;;;;;;5073010;28;20255;-15
2022/06/19 00:09:56;;;;;;;5.13;1.70;;;;;;;;;;5072907;28;20240;-15
2022/06/19 00:12:23;;;;;;;5.10;1.75;;;;;;;;;;5072107;28;20233;-15
2022/06/19 00:14:51;;;;;;;4.80;1.67;;;;;;;;;;5072891;28;20236;-15
2022/06/19 00:17:18;;;;;;;8.05;1.77;;;;;;;;;;5072478;28;20700;-15
2022/06/19 00:19:46;;;;;;;8.80;2.35;;;;;;;;;;5072802;28;20264;-15
2022/06/19 00:22:15;;;;;;;6.60;2.08;;;;;;;;;;5072289;28;20246;-15
2022/06/19 00:24:42;;;;;;;7.72;2.03;;;;;;;;;;5072683;28;20245;-15
2022/06/19 00:27:10;;;;;;;8.20;1.85;;;;;;;;;;5072557;28;20233;-15
2022/06/19 00:29:37;;;;;;;7.82;2.35;;;;;;;;;;5072621;28;21036;-15
2022/06/19 00:32:07;;;;;;;5.63;2.10;;;;;;;;;;5072329;28;20713;-15
2022/06/19 00:34:35;;;;;;;5.47;2.03;;;;;;;;;;5072254;28;20234;-15
2022/06/19 00:37:03;;;;;;;6.97;2.20;;;;;;;;;;5071696;28;20703;-15
2022/06/19 00:39:32;;;;;;;9.30;2.20;;;;;;;;;;5072466;28;20225;-15
2022/06/19 00:42:00;;;;;;;7.80;1.90;;;;;;;;;;5072614;28;20728;-15
2022/06/19 00:44:27;;;;;;;10.05;2.40;;;;;;;;;;5072257;28;20239;-15
2022/06/19 00:46:55;;;;;;;7.20;1.98;;;;;;;;;;5072384;28;20229;-15
2022/06/19 00:49:24;;;;;;;8.10;2.22;;;;;;;;;;5067270;28;20313;-15
2022/06/19 00:51:54;;;;;;;11.77;2.25;;;;;;;;;;5072332;28;20237;-15
2022/06/19 00:54:22;;;;;;;8.05;2.20;;;;;;;;;;5072196;28;20233;-15
2022/06/19 00:56:51;;;;;;;6.30;2.00;;;;;;;;;;5072041;28;20230;-15
2022/06/19 00:59:18;;;;;;;7.68;2.03;;;;;;;;;;5070929;28;20773;-15
2022/06/19 01:01:45;;;;;;;7.53;2.45;;;;;;;;;;5071051;28;20983;-15
2022/06/19 01:04:15;;;;;;;5.78;1.95;;;;;;;;;;5071918;28;20324;-15
2022/06/19 01:06:42;;;;;;;9.20;2.20;;;;;;;;;;5071928;28;20234;-15
2022/06/19 01:09:10;;;;;;;7.22;2.13;;;;;;;;;;5071455;28;20226;-15
2022/06/19 01:11:38;;;;;;;7.45;2.05;;;;;;;;;;5062520;28;20712;-15
2022/06/19 01:14:08;;;;;;;7.93;1.98;;;;;;;;;;5071941;28;20234;-15
2022/06/19 01:16:36;;;;;;;6.70;1.95;;;;;;;;;;5072189;28;20221;-15
2022/06/19 01:19:03;;;;;;;8.18;2.50;;;;;;;;;;5070604;28;20249;-15
2022/06/19 01:21:33;;;;;;;7.53;2.55;;;;;;;;;;5070281;28;20951;-15
2022/06/19 01:24:02;;;;;;;7.00;2.03;;;;;;;;;;5070767;28;20328;-15
2022/06/19 01:26:31;;;;;;;7.72;2.22;;;;;;;;;;5076723;28;20243;-15
2022/06/19 01:28:58;;;;;;;7.03;2.40;;;;;;;;;;5068899;28;20725;-15
2022/06/19 01:31:25;;;;;;;9.73;2.60;;;;;;;;;;5070093;28;20241;-15
2022/06/19 01:33:53;;;;;;;6.32;2.05;;;;;;;;;;5071483;28;20278;-15
2022/06/19 01:36:21;;;;;;;7.28;2.15;;;;;;;;;;5071388;28;20217;-15
2022/06/19 01:38:49;;;;;;;10.45;2.58;;;;;;;;;;5071472;28;20233;-15
2022/06/19 01:41:19;;;;;;;8.75;2.33;;;;;;;;;;5071346;28;20233;-15
2022/06/19 01:43:48;;;;;;;6.88;1.90;;;;;;;;;;5070700;28;20876;-15
2022/06/19 01:46:15;;;;;;;7.93;2.00;;;;;;;;;;5071277;28;20283;-15
2022/06/19 01:48:43;;;;;;;7.18;2.00;;;;;;;;;;5071146;28;20280;-15
2022/06/19 01:51:10;;;;;;;7.97;2.30;;;;;;;;;;5070140;28;20249;-15
2022/06/19 01:53:39;;;;;;;6.38;2.40;;;;;;;;;;5071436;28;21115;-15
2022/06/19 01:56:07;;;;;;;5.00;1.48;;;;;;;;;;5071345;28;20313;-15
2022/06/19 01:58:34;;;;;;;9.25;2.35;;;;;;;;;;5071326;28;21051;-15
2022/06/19 02:01:03;;;;;;;6.63;2.22;;;;;;;;;;5071092;28;20236;-15
2022/06/19 02:03:32;;;;;;;6.00;2.20;;;;;;;;;;5064519;28;20305;-15
2022/06/19 02:05:59;;;;;;;7.25;2.17;;;;;;;;;;5070764;28;20298;-15
2022/06/19 02:08:27;;;;;;;6.80;2.17;;;;;;;;;;5071322;28;20234;-15
2022/06/19 02:10:54;;;;;;;8.75;2.45;;;;;;;;;;5070776;28;20351;-15
2022/06/19 02:13:22;;;;;;;7.80;2.38;;;;;;;;;;5070970;28;20236;-15
2022/06/19 02:15:49;;;;;;;7.47;2.08;;;;;;;;;;5069625;28;20225;-15
2022/06/19 02:18:18;;;;;;;7.13;1.85;;;;;;;;;;5070730;28;20369;-15
2022/06/19 02:23:16;;;;;;;7.70;2.25;;;;;;;;;;5043542;28;21084;-17
2022/06/19 02:25:44;;;;;;;7.25;1.90;;;;;;;;;;5051175;28;20740;-17
2022/06/19 02:28:11;;;;;;;9.27;1.92;;;;;;;;;;5051257;28;20237;-17
2022/06/19 02:30:39;;;;;;;6.78;1.98;;;;;;;;;;5046708;28;20253;-17
2022/06/19 02:33:06;;;;;;;7.80;2.03;;;;;;;;;;5048173;28;20230;-17
2022/06/19 02:35:35;;;;;;;7.90;2.00;;;;;;;;;;5050208;28;20339;-18
2022/06/19 02:38:05;;;;;;;4.55;1.55;;;;;;;;;;5050498;28;20234;-17
2022/06/19 02:40:34;;;;;;;6.95;1.83;;;;;;;;;;5044047;28;20234;-17
2022/06/19 02:43:02;;;;;;;4.90;2.08;;;;;;;;;;5050559;28;20381;-17
2022/06/19 02:45:30;;;;;;;8.57;2.03;;;;;;;;;;5050091;28;20241;-17
2022/06/19 02:47:58;;;;;;;6.65;1.85;;;;;;;;;;5050291;28;20237;-17
2022/06/19 02:50:26;;;;;;;7.72;2.15;;;;;;;;;;5050487;28;20625;-17
2022/06/19 02:52:55;;;;;;;6.35;1.70;;;;;;;;;;5050468;28;20230;-17
2022/06/19 02:55:22;;;;;;;7.78;1.60;;;;;;;;;;5050300;28;20724;-17
2022/06/19 02:57:50;;;;;;;5.57;1.90;;;;;;;;;;5050244;28;20239;-17
2022/06/19 03:00:18;;;;;;;7.50;2.15;;;;;;;;;;5049142;28;20692;-17
2022/06/19 03:02:45;;;;;;;6.78;2.00;;;;;;;;;;5042488;28;20222;-17
2022/06/19 03:05:15;;;;;;;7.82;2.05;;;;;;;;;;5049645;28;20244;-17
2022/06/19 03:07:42;;;;;;;7.47;2.13;;;;;;;;;;5050465;28;20232;-18
2022/06/19 03:10:11;;;;;;;8.05;2.78;;;;;;;;;;5036098;28;20227;-17
2022/06/19 03:12:38;;;;;;;8.48;1.98;;;;;;;;;;5050241;28;20281;-17
2022/06/19 03:15:06;;;;;;;7.78;1.90;;;;;;;;;;5049345;28;20241;-17
2022/06/19 03:17:33;;;;;;;5.68;1.83;;;;;;;;;;5049397;28;20246;-17
2022/06/19 03:20:01;;;;;;;7.60;1.80;;;;;;;;;;5049667;28;20230;-17
2022/06/19 03:22:28;;;;;;;5.85;1.52;;;;;;;;;;5051884;28;20256;-17
2022/06/19 03:24:55;;;;;;;6.28;1.90;;;;;;;;;;5053840;28;20242;-17
2022/06/19 03:27:24;;;;;;;5.40;1.52;;;;;;;;;;5053901;28;20229;-18
2022/06/19 03:29:52;;;;;;;5.50;1.50;;;;;;;;;;5051808;28;20306;-17
2022/06/19 03:32:19;;;;;;;8.18;1.98;;;;;;;;;;5051056;28;20242;-17
2022/06/19 03:34:46;;;;;;;6.88;1.92;;;;;;;;;;5053846;28;20229;-17
2022/06/19 03:37:14;;;;;;;6.82;1.88;;;;;;;;;;5039357;28;20241;-17
2022/06/19 03:39:41;;;;;;;7.15;1.40;;;;;;;;;;5053504;28;21072;-18
2022/06/19 03:42:09;;;;;;;6.30;1.40;;;;;;;;;;5052626;28;20245;-18
2022/06/19 03:44:38;;;;;;;5.57;1.63;;;;;;;;;;5053170;28;21072;-18
2022/06/19 03:47:05;;;;;;;7.28;2.25;;;;;;;;;;5053270;28;21268;-17
2022/06/19 03:49:33;;;;;;;8.23;1.73;;;;;;;;;;5053144;28;20320;-17
2022/06/19 03:52:00;;;;;;;5.55;1.77;;;;;;;;;;5053532;28;20249;-17
2022/06/19 03:54:28;;;;;;;6.22;1.48;;;;;;;;;;5051949;28;20230;-17
2022/06/19 03:56:55;;;;;;;6.70;1.58;;;;;;;;;;5053065;28;20238;-17
2022/06/19 03:59:22;;;;;;;6.85;1.42;;;;;;;;;;5053017;28;20229;-17
2022/06/19 04:01:51;;;;;;;4.68;1.38;;;;;;;;;;5053156;28;20226;-18
2022/06/19 04:04:18;;;;;;;6.40;1.33;;;;;;;;;;5061924;28;20229;-18
2022/06/19 04:06:46;;;;;;;6.60;1.60;;;;;;;;;;5053705;28;20968;-17
2022/06/19 04:09:14;;;;;;;5.70;1.33;;;;;;;;;;5052917;28;21013;-18
2022/06/19 04:11:42;;;;;;;7.22;1.80;;;;;;;;;;5052734;28;20254;-18
2022/06/19 04:14:09;;;;;;;4.88;1.30;;;;;;;;;;5052623;28;20238;-17
2022/06/19 04:16:37;;;;;;;6.72;1.55;;;;;;;;;;5049032;28;20373;-17
2022/06/19 04:19:06;;;;;;;5.45;1.50;;;;;;;;;;5052155;28;20234;-17
2022/06/19 04:21:35;;;;;;;5.68;1.65;;;;;;;;;;5052173;28;20242;-17
2022/06/19 04:24:04;;;;;;;7.00;1.70;;;;;;;;;;5052871;28;20718;-17
2022/06/19 04:26:32;;;;;;;5.93;1.50;;;;;;;;;;5063553;28;20234;-17
2022/06/19 04:28:59;;;;;;;5.40;1.58;;;;;;;;;;5038958;28;20226;-17
2022/06/19 04:31:27;;;;;;;8.63;1.90;;;;;;;;;;5052400;28;20237;-17
2022/06/19 04:33:54;;;;;;;5.38;1.70;;;;;;;;;;5051264;28;20234;-17
2022/06/19 04:36:24;;;;;;;9.07;2.03;;;;;;;;;;5052136;28;20256;-18
2022/06/19 04:38:54;;;;;;;5.57;1.83;;;;;;;;;;5052553;28;20241;-17
2022/06/19 04:41:22;;;;;;;4.10;1.30;;;;;;;;;;5052003;28;20620;-17
2022/06/19 04:43:50;;;;;;;8.02;1.58;;;;;;;;;;5051564;28;20752;-17
2022/06/19 04:46:18;;;;;;;4.40;1.45;;;;;;;;;;5052285;28;20236;-17
2022/06/19 04:48:46;;;;;;;5.75;1.60;;;;;;;;;;5053787;28;20230;-17
2022/06/19 04:51:14;;;;;;;10.80;1.75;;;;;;;;;;5052578;28;20229;-17
2022/06/19 04:53:43;;;;;;;7.85;1.50;;;;;;;;;;5052350;28;20713;-17
2022/06/19 04:56:11;;;;;;;7.30;1.80;;;;;;;;;;5052100;28;20712;-17
2022/06/19 04:58:38;;;;;;;7.53;1.60;;;;;;;;;;5051924;28;20241;-17
2022/06/19 05:01:08;;;;;;;5.32;1.67;;;;;;;;;;5051997;28;21024;-17
2022/06/19 05:03:35;;;;;;;10.50;2.15;;;;;;;;;;5051924;28;20234;-17
2022/06/19 05:06:03;;;;;;;6.53;1.88;;;;;;;;;;5051788;28;20260;-17
2022/06/19 05:08:31;;;;;;;6.15;1.83;;;;;;;;;;5051229;28;20237;-17
2022/06/19 05:11:00;;;;;;;8.18;1.73;;;;;;;;;;5054712;28;20737;-17
2022/06/19 05:13:27;;;;;;;7.75;1.73;;;;;;;;;;5051710;28;20242;-17
2022/06/19 05:16:02;;;;;;;7.47;2.05;;;;;;;;;;5051695;28;20226;-17
2022/06/19 05:18:29;;;;;;;6.43;1.70;;;;;;;;;;5051662;28;21044;-17
2022/06/19 05:20:56;;;;;;;7.72;1.83;;;;;;;;;;5051074;28;20257;-18
2022/06/19 05:23:24;;;;;;;9.77;1.75;;;;;;;;;;5051623;28;20253;-18
2022/06/19 05:25:57;;;;;;;6.95;1.60;;;;;;;;;;5051970;28;20241;-17
2022/06/19 05:28:26;;;;;;;8.88;2.10;;;;;;;;;;5051460;28;20238;-17
2022/06/19 05:30:53;;;;;;;5.45;1.70;;;;;;;;;;5050852;28;20244;-17
2022/06/19 05:33:21;;;;;;;6.85;1.90;;;;;;;;;;5050182;28;20245;-18
2022/06/19 05:35:48;;;;;;;6.50;1.67;;;;;;;;;;5051630;28;20226;-17
2022/06/19 05:38:15;;;;;;;7.72;2.13;;;;;;;;;;5051575;28;20234;-17
2022/06/19 05:40:43;;;;;;;7.03;1.63;;;;;;;;;;5051758;28;20341;-18
2022/06/19 05:43:10;;;;;;;7.78;2.10;;;;;;;;;;5050808;28;20249;-17
2022/06/19 05:45:39;;;;;;;5.47;1.42;;;;;;;;;;5051062;28;20246;-17
2022/06/19 05:48:07;;;;;;;4.95;1.60;;;;;;;;;;5051258;28;20261;-17
2022/06/19 05:50:34;;;;;;;5.65;1.65;;;;;;;;;;5051420;28;20241;-17
2022/06/19 05:53:02;;;;;;;8.50;1.63;;;;;;;;;;5051098;28;20245;-17
2022/06/19 05:55:29;;;;;;;5.88;1.35;;;;;;;;;;5050513;28;20234;-17
2022/06/19 05:57:56;;;;;;;4.32;1.73;;;;;;;;;;5050546;28;20266;-17
2022/06/19 06:00:24;;;;;;;6.43;1.40;;;;;;;;;;5050744;28;20245;-17
2022/06/19 06:02:52;;;;;;;6.50;1.73;;;;;;;;;;5051313;28;20230;-17
2022/06/19 06:05:20;;;;;;;6.90;2.03;;;;;;;;;;5050643;28;20230;-17
2022/06/19 06:07:49;;;;;;;4.32;1.20;;;;;;;;;;5051138;28;20237;-17
2022/06/19 06:10:16;;;;;;;7.97;1.85;;;;;;;;;;5037239;28;20244;-17
2022/06/19 06:12:44;;;;;;;4.15;1.20;;;;;;;;;;5051220;28;20241;-17
2022/06/19 06:15:11;;;;;;;7.38;1.50;;;;;;;;;;5050206;28;20333;-17
2022/06/19 06:17:38;;;;;;;6.85;1.58;;;;;;;;;;5041775;28;20233;-17
2022/06/19 06:20:08;;;;;;;7.10;1.80;;;;;;;;;;5051349;28;20236;-17
2022/06/19 06:22:35;;;;;;;5.13;1.70;;;;;;;;;;5049821;28;20249;-17
2022/06/19 06:25:02;;;;;;;7.00;1.25;;;;;;;;;;5051157;28;20230;-17
2022/06/19 06:27:30;;;;;;;6.03;1.40;;;;;;;;;;5050407;28;20226;-17
2022/06/19 06:29:57;;;;;;;4.85;1.50;;;;;;;;;;5050426;28;20642;-17
2022/06/19 06:32:24;;;;;;;5.88;1.70;;;;;;;;;;5050916;28;20623;-18
2022/06/19 06:34:52;;;;;;;6.05;1.40;;;;;;;;;;5050622;28;20226;-17
2022/06/19 06:37:20;;;;;;;5.30;1.50;;;;;;;;;;5050543;28;21061;-17
2022/06/19 06:39:48;;;;;;;8.77;1.60;;;;;;;;;;5050824;28;20704;-17
2022/06/19 06:42:16;;;;;;;3.92;1.00;;;;;;;;;;5050593;28;20226;-17
2022/06/19 06:44:43;;;;;;;4.97;1.25;;;;;;;;;;5050759;28;20238;-17
2022/06/19 06:47:11;;;;;;;5.00;0.98;;;;;;;;;;5044843;28;20234;-17
2022/06/19 06:49:38;;;;;;;7.63;1.58;;;;;;;;;;5049928;28;20238;-18
2022/06/19 06:52:08;;;;;;;6.13;1.40;;;;;;;;;;5050523;28;20241;-17
2022/06/19 06:54:37;;;;;;;4.40;1.25;;;;;;;;;;5050391;28;20257;-17
2022/06/19 06:57:05;;;;;;;4.10;1.30;;;;;;;;;;5052122;28;20273;-17
2022/06/19 06:59:33;;;;;;;4.57;1.27;;;;;;;;;;5053479;28;20233;-17
2022/06/19 07:02:00;;;;;;;3.72;1.13;;;;;;;;;;5054056;28;20685;-18
2022/06/19 07:04:27;;;;;;;3.88;1.00;;;;;;;;;;5053989;28;20345;-17
2022/06/19 07:06:55;;;;;;;5.95;1.30;;;;;;;;;;5054090;28;20234;-17
2022/06/19 07:09:22;;;;;;;4.45;0.90;;;;;;;;;;5054162;28;20226;-18
2022/06/19 07:11:51;;;;;;;6.38;1.42;;;;;;;;;;5052514;28;20281;-17
2022/06/19 07:14:18;;;;;;;3.13;1.30;;;;;;;;;;5053846;28;20229;-17
2022/06/19 07:16:46;;;;;;;5.22;1.30;;;;;;;;;;5053860;28;20238;-17
2022/06/19 07:19:13;;;;;;;5.40;1.42;;;;;;;;;;5053643;28;20236;-17
2022/06/19 07:21:41;;;;;;;3.58;1.02;;;;;;;;;;5052848;28;20603;-17
2022/06/19 07:24:08;;;;;;;4.75;1.33;;;;;;;;;;5053445;28;21058;-18
2022/06/19 07:26:35;;;;;;;4.80;1.15;;;;;;;;;;5053655;28;21233;-17
2022/06/19 07:29:05;;;;;;;5.72;1.27;;;;;;;;;;5053560;28;20611;-17
2022/06/19 07:31:34;;;;;;;4.20;1.30;;;;;;;;;;5041635;28;20234;-18
2022/06/19 07:34:01;;;;;;;5.78;1.38;;;;;;;;;;5052437;28;20244;-17
2022/06/19 07:36:28;;;;;;;4.00;1.30;;;;;;;;;;5053035;28;20241;-18
2022/06/19 07:38:56;;;;;;;8.13;1.60;;;;;;;;;;5053719;28;20237;-17
2022/06/19 07:41:23;;;;;;;7.00;1.70;;;;;;;;;;5053556;28;20226;-17
2022/06/19 07:43:51;;;;;;;7.15;1.42;;;;;;;;;;5052758;28;20245;-17
2022/06/19 07:46:20;;;;;;;7.18;1.60;;;;;;;;;;5048102;28;20308;-17
2022/06/19 07:51:32;;;;;;;6.85;1.38;;;;;;;;;;5053437;28;20249;-17
2022/06/19 07:54:00;;;;;;;3.90;1.33;;;;;;;;;;5053208;28;20237;-17
2022/06/19 07:56:27;;;;;;;6.88;1.33;;;;;;;;;;5052937;28;20248;-17
2022/06/19 07:58:55;;;;;;;6.28;1.48;;;;;;;;;;5052846;28;20973;-18
2022/06/19 08:01:23;;;;;;;6.22;1.80;;;;;;;;;;5052266;28;20229;-18
2022/06/19 08:04:11;;;;;;;6.45;1.42;;;;;;;;;;5053052;28;20242;-17
2022/06/19 08:06:38;;;;;;;10.02;1.40;;;;;;;;;;5051919;28;20795;-17
2022/06/19 08:09:05;;;;;;;5.97;1.60;;;;;;;;;;5052794;28;20724;-17
2022/06/19 08:11:33;;;;;;;8.52;1.77;;;;;;;;;;5052986;28;20234;-17
2022/06/19 08:14:00;;;;;;;5.13;1.45;;;;;;;;;;5053241;28;20248;-17
2022/06/19 08:16:29;;;;;;;6.95;2.00;;;;;;;;;;5052086;28;20235;-17
2022/06/19 08:18:57;;;;;;;5.78;1.52;;;;;;;;;;5052879;28;20230;-17
2022/06/19 08:21:24;;;;;;;6.20;1.58;;;;;;;;;;5052404;28;20242;-17
2022/06/19 08:23:51;;;;;;;8.48;1.70;;;;;;;;;;5052749;28;20245;-17
2022/06/19 08:26:19;;;;;;;7.03;1.98;;;;;;;;;;5051771;28;20234;-17
2022/06/19 08:28:49;;;;;;;5.75;1.65;;;;;;;;;;5051592;28;20223;-17
2022/06/19 08:31:16;;;;;;;6.82;1.92;;;;;;;;;;5052596;28;20230;-17
2022/06/19 08:33:45;;;;;;;5.13;1.20;;;;;;;;;;5052419;28;20230;-17
2022/06/19 08:36:12;;;;;;;6.45;1.45;;;;;;;;;;5052919;28;20230;-17
2022/06/19 08:38:41;;;;;;;5.85;1.50;;;;;;;;;;5052141;28;20240;-18
2022/06/19 08:41:27;;;;;;;6.32;1.88;;;;;;;;;;5052103;28;20779;-17
2022/06/19 08:44:18;;;;;;;3.50;1.35;;;;;;;;;;5052488;28;20234;-17
2022/06/19 08:46:48;;;;;;;5.80;1.30;;;;;;;;;;5031355;28;20288;-18
2022/06/19 08:49:20;;;;;;;7.10;1.70;;;;;;;;;;5051700;28;20230;-18
2022/06/19 08:51:50;;;;;;;5.40;1.45;;;;;;;;;;5051746;28;20234;-18
2022/06/19 08:54:22;;;;;;;7.07;1.02;;;;;;;;;;5051994;28;20249;-17
2022/06/19 08:56:53;;;;;;;6.88;1.35;;;;;;;;;;5051856;28;20233;-18
2022/06/19 08:59:22;;;;;;;5.43;1.25;;;;;;;;;;5052369;28;20731;-18
2022/06/19 09:01:54;;;;;;;5.47;1.50;;;;;;;;;;5051428;28;20226;-18
2022/06/19 09:07:12;;;;;;;4.95;1.40;;;;;;;;;;5051756;28;21077;-18
2022/06/19 09:09:44;;;;;;;8.35;2.00;;;;;;;;;;5051660;28;20230;-18
2022/06/19 09:12:20;;;;;;;5.85;1.50;;;;;;;;;;5051712;28;20240;-17
2022/06/19 09:14:49;;;;;;;5.78;1.40;;;;;;;;;;5051946;28;20289;-17
2022/06/19 09:17:17;;;;;;;3.85;1.05;;;;;;;;;;5051020;28;20226;-17
2022/06/19 09:19:49;;;;;;;7.97;1.60;;;;;;;;;;5050976;28;20746;-17
2022/06/19 09:22:21;;;;;;;6.03;1.58;;;;;;;;;;5051380;28;20276;-17
2022/06/19 09:24:54;;;;;;;3.92;1.25;;;;;;;;;;5051918;28;20234;-18
2022/06/19 09:27:24;;;;;;;5.38;1.25;;;;;;;;;;5038257;28;20237;-17
2022/06/19 09:29:52;;;;;;;4.70;1.30;;;;;;;;;;5051718;28;20281;-17
2022/06/19 09:32:20;;;;;;;4.35;1.10;;;;;;;;;;5051657;28;20234;-17
2022/06/19 09:34:50;;;;;;;6.35;2.15;;;;;;;;;;5050880;28;20238;-17
2022/06/19 09:37:19;;;;;;;4.60;1.20;;;;;;;;;;5051285;28;20257;-17
2022/06/19 09:39:48;;;;;;;5.57;1.40;;;;;;;;;;5051529;28;20711;-17
2022/06/19 09:42:16;;;;;;;3.05;1.25;;;;;;;;;;5050718;28;20638;-17
2022/06/19 09:44:44;;;;;;;5.97;1.58;;;;;;;;;;5050815;28;20238;-17
2022/06/19 09:47:12;;;;;;;6.82;1.65;;;;;;;;;;5051234;28;20230;-17
2022/06/19 09:49:41;;;;;;;3.10;1.30;;;;;;;;;;5051161;28;20316;-18
2022/06/19 09:52:10;;;;;;;3.92;1.27;;;;;;;;;;5051207;28;20236;-17
2022/06/19 09:54:39;;;;;;;5.53;1.45;;;;;;;;;;5051319;28;20635;-17
2022/06/19 09:57:09;;;;;;;5.68;1.38;;;;;;;;;;5050190;28;20226;-17
2022/06/19 09:59:39;;;;;;;5.43;1.17;;;;;;;;;;5051299;28;20230;-17
2022/06/19 10:02:08;;;;;;;4.30;1.52;;;;;;;;;;5051231;28;20291;-17
2022/06/19 10:04:36;;;;;;;4.18;1.27;;;;;;;;;;5051547;28;20226;-17
2022/06/19 10:07:04;;;;;;;3.83;1.33;;;;;;;;;;5049848;28;20282;-17
2022/06/19 10:09:33;;;;;;;5.45;1.40;;;;;;;;;;5051335;28;20270;-17
2022/06/19 10:12:01;;;;;;;4.10;1.60;;;;;;;;;;5037656;28;20713;-18
2022/06/19 10:14:31;;;;;;;7.10;1.60;;;;;;;;;;5051017;28;20233;-17
2022/06/19 10:16:59;;;;;;;7.07;1.67;;;;;;;;;;5050767;28;20226;-17
2022/06/19 10:19:29;;;;;;;4.15;1.02;;;;;;;;;;5050382;28;20240;-17
2022/06/19 10:22:16;;;;;;;4.40;1.05;;;;;;;;;;5050603;28;20292;-17
2022/06/19 10:24:49;;;;;;;2.97;1.02;;;;;;;;;;5051063;28;20688;-17
2022/06/19 10:27:19;;;;;;;4.40;1.05;;;;;;;;;;5051060;28;20229;-17
2022/06/19 10:29:49;;;;;;;3.33;1.13;;;;;;;;;;5050930;28;20230;-17
2022/06/19 10:32:21;;;;;;;5.63;1.30;;;;;;;;;;5050234;28;20245;-17
2022/06/19 10:34:51;;;;;;;5.88;1.67;;;;;;;;;;5050660;28;20237;-17
2022/06/19 10:37:19;;;;;;;4.75;1.45;;;;;;;;;;5050722;28;20229;-17
2022/06/19 10:39:52;;;;;;;5.88;1.25;;;;;;;;;;5055354;28;20292;-17
2022/06/19 10:42:24;;;;;;;3.70;1.20;;;;;;;;;;5056530;28;21020;-17
2022/06/19 10:44:59;;;;;;;2.65;0.90;;;;;;;;;;5050442;28;20227;-18
2022/06/19 10:47:28;;;;;;;4.35;1.02;;;;;;;;;;5050484;28;20237;-17
2022/06/19 10:49:58;;;;;;;4.72;1.15;;;;;;;;;;5051202;28;20238;-17
2022/06/19 10:52:26;;;;;;;5.82;1.27;;;;;;;;;;5049834;28;20324;-17
2022/06/19 10:55:01;;;;;;;4.72;1.10;;;;;;;;;;5050513;28;20234;-17
2022/06/19 10:57:32;;;;;;;5.78;1.17;;;;;;;;;;5049524;28;20221;-17
2022/06/19 10:59:59;;;;;;;6.45;1.48;;;;;;;;;;5050256;28;20234;-17
2022/06/19 11:05:16;;;;;;;3.83;1.45;;;;;;;;;;5037325;28;20233;-16
2022/06/19 11:07:43;;;;;;;4.53;1.10;;;;;;;;;;5050498;28;20240;-17
2022/06/19 11:10:16;;;;;;;3.92;1.00;;;;;;;;;;5050263;28;20225;-16
2022/06/19 11:12:44;;;;;;;4.07;1.10;;;;;;;;;;5049836;28;20896;-16
2022/06/19 11:15:11;;;;;;;5.20;0.90;;;;;;;;;;5048871;28;21028;-16
2022/06/19 11:17:39;;;;;;;2.55;0.95;;;;;;;;;;5040882;28;20229;-18
2022/06/19 11:20:18;;;;;;;5.65;1.45;;;;;;;;;;5050300;28;21093;-18
2022/06/19 11:22:46;;;;;;;5.28;1.20;;;;;;;;;;5049173;28;20238;-18
2022/06/19 11:25:17;;;;;;;3.85;0.90;;;;;;;;;;5049650;28;20312;-18
2022/06/19 11:27:49;;;;;;;3.67;1.50;;;;;;;;;;5050052;28;20236;-18
2022/06/19 11:30:16;;;;;;;4.25;1.60;;;;;;;;;;5050139;28;20233;-18
2022/06/19 11:32:48;;;;;;;5.07;1.27;;;;;;;;;;5050301;28;20233;-18
2022/06/19 11:35:15;;;;;;;4.00;1.13;;;;;;;;;;5049914;28;20241;-18
2022/06/19 11:37:46;;;;;;;3.58;1.10;;;;;;;;;;5050122;28;20241;-18
2022/06/19 11:40:14;;;;;;;4.55;1.20;;;;;;;;;;5050259;28;21045;-18
2022/06/19 11:42:47;;;;;;;4.38;1.10;;;;;;;;;;5050724;28;20230;-18
2022/06/19 11:45:22;;;;;;;4.10;1.20;;;;;;;;;;5052476;28;20229;-17
2022/06/19 11:47:59;;;;;;;5.03;1.45;;;;;;;;;;5052673;28;20241;-17
2022/06/19 11:50:27;;;;;;;3.65;1.02;;;;;;;;;;5053461;28;20753;-17
2022/06/19 11:52:56;;;;;;;5.20;1.15;;;;;;;;;;5053111;28;20226;-17
2022/06/19 11:55:25;;;;;;;4.47;1.48;;;;;;;;;;5053401;28;20731;-17
2022/06/19 11:57:55;;;;;;;7.88;1.30;;;;;;;;;;5052164;28;20724;-17
2022/06/19 12:00:23;;;;;;;3.85;1.40;;;;;;;;;;5053193;28;20292;-17
2022/06/19 12:02:52;;;;;;;2.67;1.02;;;;;;;;;;5053189;28;20233;-18
2022/06/19 12:05:21;;;;;;;4.88;1.42;;;;;;;;;;5053014;28;21037;-18
2022/06/19 12:07:48;;;;;;;4.15;1.40;;;;;;;;;;5052463;28;20775;-18
2022/06/19 12:10:19;;;;;;;4.45;1.55;;;;;;;;;;5038905;28;20654;-18
2022/06/19 12:12:52;;;;;;;3.83;1.40;;;;;;;;;;5052424;28;20234;-18
2022/06/19 12:15:25;;;;;;;5.72;1.45;;;;;;;;;;5052905;28;20230;-16
2022/06/19 12:17:56;;;;;;;7.03;1.63;;;;;;;;;;5053030;28;20242;-16
2022/06/19 12:20:25;;;;;;;5.28;1.63;;;;;;;;;;5064833;28;21065;-16
2022/06/19 12:23:00;;;;;;;3.67;1.60;;;;;;;;;;5051985;28;20258;-16
2022/06/19 12:25:32;;;;;;;3.90;1.38;;;;;;;;;;5052853;28;20226;-16
2022/06/19 12:28:04;;;;;;;4.82;1.50;;;;;;;;;;5052342;28;20230;-18
2022/06/19 12:30:35;;;;;;;5.63;1.70;;;;;;;;;;5052082;28;20230;-16
2022/06/19 12:33:03;;;;;;;4.70;1.30;;;;;;;;;;5052619;28;20732;-18
2022/06/19 12:35:32;;;;;;;4.47;1.45;;;;;;;;;;5052545;28;21616;-18
2022/06/19 12:37:59;;;;;;;6.30;1.88;;;;;;;;;;5038234;28;20728;-18
2022/06/19 12:40:30;;;;;;;7.22;1.70;;;;;;;;;;5054402;28;20253;-18
2022/06/19 12:42:59;;;;;;;6.28;1.48;;;;;;;;;;5052916;28;20237;-18
2022/06/19 12:45:30;;;;;;;8.30;1.88;;;;;;;;;;5049125;28;20223;-18
2022/06/19 12:47:59;;;;;;;4.72;1.20;;;;;;;;;;5050761;28;20660;-17
2022/06/19 12:50:34;;;;;;;6.50;2.17;;;;;;;;;;5052699;28;20245;-18
2022/06/19 12:53:05;;;;;;;4.35;1.40;;;;;;;;;;5051279;28;20236;-17
2022/06/19 12:55:50;;;;;;;5.65;1.48;;;;;;;;;;5051154;28;20240;-17
2022/06/19 12:58:39;;;;;;;7.22;1.73;;;;;;;;;;5051754;28;20226;-17
2022/06/19 13:01:10;;;;;;;7.97;2.05;;;;;;;;;;5052154;28;20321;-17
2022/06/19 13:03:42;;;;;;;6.60;1.80;;;;;;;;;;5051382;28;20292;-18
2022/06/19 13:06:16;;;;;;;5.68;1.48;;;;;;;;;;5052198;28;20775;-18
2022/06/19 13:08:51;;;;;;;5.95;1.42;;;;;;;;;;5052008;28;20269;-17
2022/06/19 13:11:23;;;;;;;4.82;1.23;;;;;;;;;;5051970;28;20230;-17
2022/06/19 13:14:05;;;;;;;6.68;1.80;;;;;;;;;;5057001;28;20232;-17
2022/06/19 13:16:35;;;;;;;5.68;1.60;;;;;;;;;;5052788;28;20249;-17
2022/06/19 13:19:05;;;;;;;5.55;1.20;;;;;;;;;;5051492;28;20308;-17
2022/06/19 13:21:36;;;;;;;5.00;1.58;;;;;;;;;;5051175;28;20688;-18
2022/06/19 13:24:10;;;;;;;5.93;1.63;;;;;;;;;;5051828;28;20230;-17
2022/06/19 13:29:26;;;;;;;5.15;1.77;;;;;;;;;;5051019;28;20238;-18
2022/06/19 13:32:01;;;;;;;7.43;1.85;;;;;;;;;;5051620;28;20269;-17
2022/06/19 13:34:32;;;;;;;6.00;1.60;;;;;;;;;;5051921;28;20233;-17
2022/06/19 13:37:02;;;;;;;5.22;1.42;;;;;;;;;;5051075;28;21112;-17
2022/06/19 13:39:32;;;;;;;4.05;1.40;;;;;;;;;;5051373;28;20230;-17
2022/06/19 13:42:03;;;;;;;5.75;1.42;;;;;;;;;;5051447;28;20218;-18
2022/06/19 13:44:38;;;;;;;4.82;1.20;;;;;;;;;;5051392;28;20230;-17
2022/06/19 13:47:07;;;;;;;4.32;1.30;;;;;;;;;;5050856;28;20771;-17
2022/06/19 13:49:36;;;;;;;3.95;1.30;;;;;;;;;;5052023;28;20693;-17
2022/06/19 13:52:16;;;;;;;6.45;1.30;;;;;;;;;;5051657;28;20332;-17
2022/06/19 13:54:51;;;;;;;3.83;1.05;;;;;;;;;;5050551;28;20230;-17
2022/06/19 13:57:19;;;;;;;3.67;1.30;;;;;;;;;;5050240;28;20246;-17
2022/06/19 13:59:53;;;;;;;4.68;1.15;;;;;;;;;;5051086;28;20237;-17
2022/06/19 14:02:22;;;;;;;3.90;1.10;;;;;;;;;;5043360;28;20953;-17
2022/06/19 14:04:56;;;;;;;5.40;1.33;;;;;;;;;;5050961;28;20230;-17
2022/06/19 14:07:26;;;;;;;4.78;1.30;;;;;;;;;;5051113;28;20230;-18
2022/06/19 14:09:55;;;;;;;6.07;1.45;;;;;;;;;;5050656;28;20236;-17
2022/06/19 14:12:25;;;;;;;5.28;1.23;;;;;;;;;;5051279;28;20230;-17
2022/06/19 14:14:55;;;;;;;4.43;1.20;;;;;;;;;;5050815;28;20226;-17
2022/06/19 14:17:24;;;;;;;4.22;1.35;;;;;;;;;;5050939;28;20249;-18
2022/06/19 14:19:58;;;;;;;6.13;1.20;;;;;;;;;;5049437;28;20233;-18
2022/06/19 14:22:26;;;;;;;3.40;1.23;;;;;;;;;;5050447;28;20258;-17
2022/06/19 14:24:57;;;;;;;5.93;1.10;;;;;;;;;;5050667;28;20269;-17
2022/06/19 14:27:32;;;;;;;4.85;1.55;;;;;;;;;;5050858;28;20241;-17
2022/06/19 14:29:59;;;;;;;4.38;1.30;;;;;;;;;;5050689;28;20230;-17
2022/06/19 14:32:27;;;;;;;4.43;1.58;;;;;;;;;;5050484;28;20332;-18
2022/06/19 14:35:11;;;;;;;4.88;1.27;;;;;;;;;;5050747;28;20222;-17
2022/06/19 14:37:46;;;;;;;5.43;1.00;;;;;;;;;;5050880;28;20721;-17
2022/06/19 14:40:31;;;;;;;4.05;1.10;;;;;;;;;;5050847;28;20372;-17
2022/06/19 14:43:00;;;;;;;3.55;1.10;;;;;;;;;;5050310;28;20222;-17
2022/06/19 14:45:28;;;;;;;6.03;1.55;;;;;;;;;;5050092;28;20230;-17
2022/06/19 14:47:57;;;;;;;4.57;1.40;;;;;;;;;;5050572;28;21062;-17
2022/06/19 14:50:29;;;;;;;3.00;1.00;;;;;;;;;;5050337;28;20236;-17
2022/06/19 14:53:03;;;;;;;5.18;1.20;;;;;;;;;;5049953;28;20237;-17
2022/06/19 14:55:33;;;;;;;7.10;1.20;;;;;;;;;;5050783;28;20902;-17
2022/06/19 14:58:01;;;;;;;4.32;1.33;;;;;;;;;;5050280;28;20244;-17
2022/06/19 15:00:29;;;;;;;5.88;1.33;;;;;;;;;;5047345;28;20264;-18
2022/06/19 15:02:59;;;;;;;3.97;0.60;;;;;;;;;;5046489;28;20241;-17
2022/06/19 15:05:27;;;;;;;5.65;1.23;;;;;;;;;;5049424;28;20775;-17
2022/06/19 15:07:57;;;;;;;3.15;1.00;;;;;;;;;;5050416;28;20241;-17